createdAt,value
2018-12-15T00:01:29.860Z,0.46
2018-12-15T00:03:58.599Z,0.50
2018-12-15T00:06:27.289Z,0.52
2018-12-15T00:08:55.280Z,0.42
2018-12-15T00:11:23.225Z,0.53
2018-12-15T00:13:51.086Z,0.51
2018-12-15T00:16:18.966Z,0.57
2018-12-15T00:18:46.817Z,0.40
2018-12-15T00:21:14.684Z,0.54
2018-12-15T00:23:42.900Z,0.53
2018-12-15T00:26:10.840Z,0.55
2018-12-15T00:28:38.830Z,0.57
2018-12-15T00:31:06.797Z,0.49
2018-12-15T00:33:34.992Z,0.49
2018-12-15T00:36:02.702Z,0.33
2018-12-15T00:38:30.567Z,0.44
2018-12-15T00:40:58.592Z,0.43
2018-12-15T00:43:26.668Z,0.52
2018-12-15T00:45:54.590Z,0.38
2018-12-15T00:48:22.657Z,0.35
2018-12-15T00:50:50.845Z,0.25
2018-12-15T00:53:19.051Z,0.29
2018-12-15T00:55:46.878Z,0.42
2018-12-15T00:58:14.744Z,0.43
2018-12-15T01:00:43.777Z,0.34
2018-12-15T01:03:11.926Z,0.53
2018-12-15T01:05:40.028Z,0.31
2018-12-15T01:08:07.931Z,0.40
2018-12-15T01:10:35.822Z,0.26
2018-12-15T01:13:04.112Z,0.33
2018-12-15T01:15:46.627Z,0.24
2018-12-15T01:18:14.795Z,0.35
2018-12-15T01:20:42.960Z,0.48
2018-12-15T01:23:11.254Z,0.28
2018-12-15T01:25:39.415Z,0.47
2018-12-15T01:28:07.406Z,0.38
2018-12-15T01:30:35.221Z,0.42
2018-12-15T01:33:03.213Z,0.43
2018-12-15T01:35:31.304Z,0.24
2018-12-15T01:37:59.243Z,0.40
2018-12-15T01:40:27.105Z,0.28
2018-12-15T01:42:55.100Z,0.27
2018-12-15T01:45:23.298Z,0.34
2018-12-15T01:47:51.366Z,0.36
2018-12-15T01:50:19.297Z,0.14
2018-12-15T01:52:47.405Z,0.41
2018-12-15T01:55:15.445Z,0.40
2018-12-15T01:57:43.645Z,0.55
2018-12-15T02:00:13.464Z,0.17
2018-12-15T02:02:41.427Z,0.53
2018-12-15T02:05:09.366Z,0.19
2018-12-15T02:07:37.332Z,0.45
2018-12-15T02:10:06.472Z,0.40
2018-12-15T02:12:35.371Z,0.20
2018-12-15T02:15:03.728Z,0.33
2018-12-15T02:17:33.781Z,0.37
2018-12-15T02:20:02.025Z,0.13
2018-12-15T02:22:30.076Z,0.37
2018-12-15T02:24:58.215Z,0.14
2018-12-15T02:27:26.081Z,0.00
2018-12-15T02:29:54.072Z,0.13
2018-12-15T02:32:22.383Z,0.12
2018-12-15T02:34:50.249Z,0.09
2018-12-15T02:37:18.319Z,0.12
2018-12-15T02:39:46.360Z,0.18
2018-12-15T02:42:14.325Z,0.25
2018-12-15T02:44:42.190Z,0.29
2018-12-15T02:47:10.056Z,-0.06
2018-12-15T02:49:37.923Z,0.12
2018-12-15T02:52:05.838Z,0.15
2018-12-15T02:54:33.853Z,0.03
2018-12-15T02:57:01.744Z,0.14
2018-12-15T02:59:30.142Z,0.26
2018-12-15T03:01:58.201Z,0.17
2018-12-15T03:04:26.285Z,0.26
2018-12-15T03:06:54.131Z,0.28
2018-12-15T03:09:22.072Z,0.13
2018-12-15T03:11:50.099Z,0.19
2018-12-15T03:14:18.004Z,0.25
2018-12-15T03:17:07.121Z,0.30
2018-12-15T03:19:35.162Z,0.17
2018-12-15T03:22:03.132Z,0.11
2018-12-15T03:24:31.314Z,0.10
2018-12-15T03:26:59.405Z,0.27
2018-12-15T03:29:27.491Z,0.02
2018-12-15T03:31:55.414Z,0.06
2018-12-15T03:34:23.340Z,0.36
2018-12-15T03:36:51.472Z,0.51
2018-12-15T03:39:19.410Z,0.38
2018-12-15T03:41:47.553Z,0.41
2018-12-15T03:44:15.701Z,0.51
2018-12-15T03:46:43.756Z,0.48
2018-12-15T03:49:11.843Z,0.59
2018-12-15T03:51:39.913Z,0.33
2018-12-15T03:54:07.828Z,0.66
2018-12-15T03:56:35.827Z,0.59
2018-12-15T03:59:04.110Z,0.47
2018-12-15T04:01:32.272Z,0.60
2018-12-15T04:04:00.090Z,0.55
2018-12-15T04:06:28.007Z,0.56
2018-12-15T04:08:55.971Z,0.37
2018-12-15T04:11:24.078Z,0.54
2018-12-15T04:13:52.079Z,0.57
2018-12-15T04:16:20.004Z,0.63
2018-12-15T04:18:47.935Z,0.53
2018-12-15T04:21:15.926Z,0.40
2018-12-15T04:23:44.691Z,0.31
2018-12-15T04:26:12.707Z,0.51
2018-12-15T04:28:40.778Z,0.34
2018-12-15T04:31:08.814Z,0.49
2018-12-15T04:33:37.705Z,0.44
2018-12-15T04:36:11.544Z,0.64
2018-12-15T04:38:39.584Z,0.48
2018-12-15T04:41:07.525Z,0.57
2018-12-15T04:43:35.415Z,0.46
2018-12-15T04:46:03.256Z,0.56
2018-12-15T04:48:31.291Z,0.77
2018-12-15T04:50:59.816Z,0.55
2018-12-15T04:53:27.804Z,0.75
2018-12-15T04:55:56.536Z,0.68
2018-12-15T04:58:24.459Z,0.69
2018-12-15T05:00:52.463Z,0.60
2018-12-15T05:03:20.459Z,0.47
2018-12-15T05:05:48.381Z,0.55
2018-12-15T05:08:16.477Z,0.49
2018-12-15T05:10:44.317Z,0.55
2018-12-15T05:13:12.208Z,0.64
2018-12-15T05:15:40.245Z,0.67
2018-12-15T05:18:08.347Z,0.63
2018-12-15T05:20:36.278Z,0.63
2018-12-15T05:23:04.267Z,0.72
2018-12-15T05:25:32.356Z,0.66
2018-12-15T05:28:00.097Z,0.76
2018-12-15T05:30:28.089Z,0.71
2018-12-15T05:32:56.161Z,0.73
2018-12-15T05:35:24.195Z,0.56
2018-12-15T05:37:52.160Z,0.75
2018-12-15T05:40:20.026Z,0.69
2018-12-15T05:42:48.036Z,0.93
2018-12-15T05:45:16.082Z,0.80
2018-12-15T05:47:44.825Z,0.69
2018-12-15T05:50:13.070Z,0.55
2018-12-15T05:52:41.055Z,0.70
2018-12-15T05:55:08.924Z,0.49
2018-12-15T05:57:36.873Z,0.34
2018-12-15T06:00:08.017Z,0.60
2018-12-15T06:02:36.292Z,0.79
2018-12-15T06:05:05.159Z,0.56
2018-12-15T06:07:33.099Z,0.50
2018-12-15T06:10:01.314Z,0.37
2018-12-15T06:12:29.254Z,0.61
2018-12-15T06:14:57.121Z,0.76
2018-12-15T06:17:25.111Z,0.82
2018-12-15T06:19:53.202Z,0.60
2018-12-15T06:22:21.244Z,0.58
2018-12-15T06:24:49.310Z,0.75
2018-12-15T06:27:17.274Z,0.53
2018-12-15T06:29:45.265Z,0.52
2018-12-15T06:32:14.386Z,0.64
2018-12-15T06:34:42.431Z,0.67
2018-12-15T06:37:10.912Z,0.66
2018-12-15T06:39:38.852Z,0.39
2018-12-15T06:42:06.970Z,0.54
2018-12-15T06:44:35.033Z,0.64
2018-12-15T06:47:02.974Z,0.43
2018-12-15T06:49:31.187Z,0.75
2018-12-15T06:51:58.930Z,0.66
2018-12-15T06:54:26.896Z,0.52
2018-12-15T06:56:54.966Z,0.75
2018-12-15T06:59:23.058Z,0.47
2018-12-15T07:01:50.768Z,0.80
2018-12-15T07:04:18.791Z,0.54
2018-12-15T07:06:46.724Z,0.41
2018-12-15T07:09:14.640Z,0.47
2018-12-15T07:11:42.492Z,0.38
2018-12-15T07:14:10.671Z,0.76
2018-12-15T07:16:38.712Z,0.69
2018-12-15T07:19:06.653Z,0.67
2018-12-15T07:21:34.519Z,0.65
2018-12-15T07:24:02.508Z,0.74
2018-12-15T07:26:30.613Z,0.66
2018-12-15T07:28:58.889Z,0.69
2018-12-15T07:31:26.930Z,0.57
2018-12-15T07:33:55.021Z,0.58
2018-12-15T07:36:22.962Z,0.66
2018-12-15T07:38:50.827Z,0.74
2018-12-15T07:41:19.044Z,0.71
2018-12-15T07:43:47.083Z,0.65
2018-12-15T07:46:15.250Z,0.88
2018-12-15T07:48:43.219Z,0.74
2018-12-15T07:51:11.121Z,0.69
2018-12-15T07:53:39.089Z,0.79
2018-12-15T07:56:07.058Z,0.79
2018-12-15T07:58:35.027Z,1.08
2018-12-15T08:01:02.744Z,0.83
2018-12-15T08:03:30.760Z,0.88
2018-12-15T08:05:58.627Z,0.92
2018-12-15T08:08:26.570Z,0.89
2018-12-15T08:11:00.299Z,0.87
2018-12-15T08:13:29.299Z,0.84
2018-12-15T08:15:57.600Z,0.96
2018-12-15T08:18:25.380Z,0.75
2018-12-15T08:20:53.368Z,0.96
2018-12-15T08:23:21.464Z,0.74
2018-12-15T08:25:49.624Z,1.05
2018-12-15T08:28:17.566Z,0.93
2018-12-15T08:30:46.188Z,1.02
2018-12-15T08:33:14.123Z,0.84
2018-12-15T08:35:42.063Z,0.64
2018-12-15T08:38:10.209Z,0.71
2018-12-15T08:40:38.243Z,0.79
2018-12-15T08:43:06.357Z,0.80
2018-12-15T08:45:34.400Z,0.74
2018-12-15T08:48:02.345Z,0.91
2018-12-15T08:50:30.331Z,1.13
2018-12-15T08:52:58.622Z,1.28
2018-12-15T08:55:26.562Z,1.19
2018-12-15T08:57:54.778Z,1.29
2018-12-15T09:00:22.697Z,1.20
2018-12-15T09:02:50.793Z,1.05
2018-12-15T09:05:18.791Z,1.34
2018-12-15T09:07:46.716Z,1.33
2018-12-15T09:10:14.586Z,1.51
2018-12-15T09:12:42.571Z,1.05
2018-12-15T09:15:11.483Z,1.28
2018-12-15T09:17:40.079Z,0.90
2018-12-15T09:20:08.239Z,0.99
2018-12-15T09:22:36.235Z,1.04
2018-12-15T09:25:04.453Z,1.03
2018-12-15T09:27:32.365Z,1.52
2018-12-15T09:30:00.309Z,1.54
2018-12-15T09:32:28.248Z,1.18
2018-12-15T09:34:56.112Z,1.43
2018-12-15T09:37:23.981Z,1.16
2018-12-15T09:39:51.843Z,1.14
2018-12-15T09:42:20.063Z,1.12
2018-12-15T09:44:48.000Z,1.34
2018-12-15T09:47:16.014Z,1.45
2018-12-15T09:49:43.931Z,1.23
2018-12-15T09:52:12.122Z,1.38
2018-12-15T09:54:40.066Z,1.42
2018-12-15T09:57:08.153Z,1.49
2018-12-15T09:59:36.094Z,1.41
2018-12-15T10:02:04.324Z,1.94
2018-12-15T10:04:32.328Z,1.40
2018-12-15T10:07:00.468Z,1.64
2018-12-15T10:09:31.584Z,1.72
2018-12-15T10:15:07.860Z,1.47
2018-12-15T10:17:35.825Z,1.46
2018-12-15T10:20:05.203Z,1.39
2018-12-15T10:22:33.337Z,1.51
2018-12-15T10:25:01.400Z,1.55
2018-12-15T10:27:29.539Z,1.71
2018-12-15T10:33:01.507Z,1.69
2018-12-15T10:35:29.650Z,1.77
2018-12-15T10:37:57.513Z,1.80
2018-12-15T10:40:25.675Z,1.48
2018-12-15T10:42:53.746Z,1.65
2018-12-15T10:45:21.662Z,1.75
2018-12-15T10:47:49.889Z,1.73
2018-12-15T10:50:17.942Z,1.74
2018-12-15T10:52:46.032Z,1.64
2018-12-15T10:55:13.903Z,1.41
2018-12-15T10:57:41.965Z,1.40
2018-12-15T11:00:12.155Z,1.53
2018-12-15T11:02:40.284Z,1.39
2018-12-15T11:05:08.662Z,1.44
2018-12-15T11:07:36.716Z,1.32
2018-12-15T11:10:04.988Z,1.47
2018-12-15T11:12:32.708Z,1.42
2018-12-15T11:15:00.826Z,1.58
2018-12-15T11:17:28.689Z,1.58
2018-12-15T11:19:56.630Z,1.48
2018-12-15T11:22:24.730Z,1.67
2018-12-15T11:24:52.787Z,1.53
2018-12-15T11:27:24.368Z,1.65
2018-12-15T11:29:52.426Z,1.60
2018-12-15T11:32:20.484Z,1.75
2018-12-15T11:34:48.426Z,1.47
2018-12-15T11:37:16.230Z,1.42
2018-12-15T11:39:44.256Z,1.42
2018-12-15T11:42:12.293Z,1.63
2018-12-15T11:44:40.187Z,1.32
2018-12-15T11:47:08.003Z,1.30
2018-12-15T11:49:35.919Z,1.34
2018-12-15T11:52:03.786Z,1.37
2018-12-15T11:54:31.901Z,1.69
2018-12-15T11:56:59.942Z,1.87
2018-12-15T11:59:27.857Z,1.52
2018-12-15T12:01:55.797Z,1.59
2018-12-15T12:04:23.749Z,1.88
2018-12-15T12:06:51.606Z,1.66
2018-12-15T12:09:19.622Z,1.84
2018-12-15T12:11:47.663Z,1.60
2018-12-15T12:14:15.952Z,1.75
2018-12-15T12:16:45.471Z,1.63
2018-12-15T12:19:13.407Z,1.72
2018-12-15T12:21:41.273Z,1.81
2018-12-15T12:24:09.140Z,2.02
2018-12-15T12:26:37.012Z,1.81
2018-12-15T12:29:05.216Z,1.39
2018-12-15T12:31:33.236Z,1.50
2018-12-15T12:34:01.327Z,1.24
2018-12-15T12:36:29.267Z,1.48
2018-12-15T12:38:58.368Z,1.76
2018-12-15T12:41:26.652Z,1.78
2018-12-15T12:43:54.667Z,1.67
2018-12-15T12:46:22.840Z,1.63
2018-12-15T12:48:50.995Z,1.67
2018-12-15T12:51:19.291Z,1.65
2018-12-15T12:53:47.328Z,1.99
2018-12-15T12:56:15.292Z,1.72
2018-12-15T12:58:43.408Z,1.96
2018-12-15T13:01:11.348Z,1.54
2018-12-15T13:03:39.293Z,1.49
2018-12-15T13:06:07.310Z,1.61
2018-12-15T13:08:35.382Z,1.44
2018-12-15T13:11:03.246Z,1.56
2018-12-15T13:13:31.202Z,1.59
2018-12-15T13:15:59.391Z,1.49
2018-12-15T13:18:27.435Z,1.77
2018-12-15T13:20:55.376Z,1.68
2018-12-15T13:23:23.241Z,1.47
2018-12-15T13:25:51.259Z,1.77
2018-12-15T13:28:19.197Z,1.79
2018-12-15T13:30:47.306Z,1.92
2018-12-15T13:33:27.101Z,2.00
2018-12-15T13:35:55.218Z,2.09
2018-12-15T13:38:23.159Z,1.70
2018-12-15T13:40:51.779Z,1.79
2018-12-15T13:43:19.848Z,1.79
2018-12-15T13:45:47.832Z,1.83
2018-12-15T13:48:15.696Z,1.57
2018-12-15T13:50:43.866Z,1.56
2018-12-15T13:53:11.829Z,1.50
2018-12-15T13:55:39.780Z,1.58
2018-12-15T13:58:07.808Z,1.62
2018-12-15T14:00:35.941Z,1.66
2018-12-15T14:03:03.965Z,1.88
2018-12-15T14:05:32.079Z,1.86
2018-12-15T14:08:00.821Z,1.89
2018-12-15T14:10:28.810Z,1.63
2018-12-15T14:12:56.907Z,1.61
2018-12-15T14:15:24.649Z,1.71
2018-12-15T14:17:52.833Z,1.88
2018-12-15T14:20:20.774Z,1.76
2018-12-15T14:22:48.640Z,1.91
2018-12-15T14:25:16.649Z,1.84
2018-12-15T14:27:44.621Z,1.72
2018-12-15T14:30:12.563Z,1.46
2018-12-15T14:32:40.658Z,1.36
2018-12-15T14:35:08.935Z,1.62
2018-12-15T14:37:36.909Z,1.58
2018-12-15T14:40:05.251Z,1.66
2018-12-15T14:42:33.340Z,1.58
2018-12-15T14:45:01.283Z,1.53
2018-12-15T14:47:29.346Z,1.47
2018-12-15T14:49:57.212Z,1.27
2018-12-15T14:52:25.429Z,1.25
2018-12-15T14:54:53.506Z,1.35
2018-12-15T14:57:25.815Z,1.38
2018-12-15T14:59:53.925Z,1.65
2018-12-15T15:02:22.019Z,1.44
2018-12-15T15:04:50.006Z,1.59
2018-12-15T15:07:17.872Z,1.46
2018-12-15T15:09:46.028Z,1.38
2018-12-15T15:12:14.028Z,1.11
2018-12-15T15:14:42.469Z,1.11
2018-12-15T15:17:10.856Z,1.14
2018-12-15T15:19:38.900Z,1.15
2018-12-15T15:22:06.999Z,1.23
2018-12-15T15:24:44.899Z,1.20
2018-12-15T15:33:43.386Z,1.06
2018-12-15T15:36:11.376Z,1.01
2018-12-15T15:38:39.465Z,1.06
2018-12-15T15:41:07.508Z,1.05
2018-12-15T15:43:35.609Z,0.99
2018-12-15T15:46:03.663Z,0.99
2018-12-15T15:48:31.750Z,0.99
2018-12-15T15:50:59.770Z,0.93
2018-12-15T15:53:27.736Z,1.14
2018-12-15T15:55:55.676Z,0.97
2018-12-15T15:58:24.142Z,0.89
2018-12-15T16:00:52.210Z,1.01
2018-12-15T16:03:20.283Z,1.02
2018-12-15T16:05:48.293Z,1.05
2018-12-15T16:08:16.279Z,0.95
2018-12-15T16:10:44.144Z,1.10
2018-12-15T16:13:12.012Z,1.01
2018-12-15T16:15:40.023Z,0.98
2018-12-15T16:18:07.744Z,1.15
2018-12-15T16:20:35.755Z,0.99
2018-12-15T16:23:03.798Z,1.09
2018-12-15T16:25:31.739Z,0.94
2018-12-15T16:27:59.680Z,1.13
2018-12-15T16:30:27.595Z,0.93
2018-12-15T16:32:55.561Z,1.03
2018-12-15T16:35:23.703Z,1.18
2018-12-15T16:37:51.694Z,0.98
2018-12-15T16:40:19.712Z,0.91
2018-12-15T16:42:47.749Z,0.90
2018-12-15T16:45:15.863Z,0.93
2018-12-15T16:47:43.824Z,1.04
2018-12-15T16:50:11.771Z,1.13
2018-12-15T16:52:40.478Z,1.32
2018-12-15T16:55:08.727Z,1.18
2018-12-15T16:57:36.685Z,1.01
2018-12-15T17:00:07.562Z,1.17
2018-12-15T17:02:35.474Z,1.00
2018-12-15T17:05:03.890Z,0.92
2018-12-15T17:07:31.831Z,0.95
2018-12-15T17:10:00.022Z,1.12
2018-12-15T17:12:27.963Z,1.00
2018-12-15T17:14:55.836Z,1.06
2018-12-15T17:17:23.693Z,0.97
2018-12-15T17:19:51.587Z,1.09
2018-12-15T17:22:19.425Z,0.89
2018-12-15T17:24:47.318Z,1.03
2018-12-15T17:27:24.808Z,0.89
2018-12-15T17:29:52.996Z,1.04
2018-12-15T17:32:20.941Z,0.94
2018-12-15T17:34:48.955Z,0.94
2018-12-15T17:37:16.868Z,0.92
2018-12-15T17:39:44.734Z,1.24
2018-12-15T17:42:12.949Z,1.11
2018-12-15T17:44:41.035Z,0.97
2018-12-15T17:47:08.956Z,1.06
2018-12-15T17:49:36.956Z,0.96
2018-12-15T17:52:05.043Z,0.83
2018-12-15T17:54:33.028Z,1.02
2018-12-15T17:57:00.944Z,1.08
2018-12-15T17:59:28.909Z,1.36
2018-12-15T18:01:56.775Z,1.16
2018-12-15T18:04:24.766Z,1.12
2018-12-15T18:06:52.706Z,1.03
2018-12-15T18:09:20.720Z,0.83
2018-12-15T18:11:48.462Z,1.02
2018-12-15T18:14:16.642Z,0.79
2018-12-15T18:16:44.920Z,0.85
2018-12-15T18:19:13.215Z,0.92
2018-12-15T18:21:41.051Z,0.94
2018-12-15T18:24:08.991Z,0.84
2018-12-15T18:26:36.982Z,0.76
2018-12-15T18:29:04.946Z,0.78
2018-12-15T18:31:32.938Z,0.93
2018-12-15T18:34:01.028Z,0.89
2018-12-15T18:36:29.070Z,0.88
2018-12-15T18:38:57.010Z,0.78
2018-12-15T18:41:24.901Z,0.78
2018-12-15T18:43:52.866Z,1.04
2018-12-15T18:46:20.832Z,1.05
2018-12-15T18:48:48.697Z,0.85
2018-12-15T18:51:16.710Z,1.04
2018-12-15T18:53:44.629Z,0.98
2018-12-15T18:56:12.620Z,1.05
2018-12-15T18:58:40.685Z,0.88
2018-12-15T19:01:08.787Z,0.67
2018-12-15T19:03:36.719Z,0.69
2018-12-15T19:06:04.770Z,0.85
2018-12-15T19:08:33.476Z,0.91
2018-12-15T19:11:01.464Z,0.80
2018-12-15T19:13:29.531Z,0.87
2018-12-15T19:15:57.627Z,0.82
2018-12-15T19:18:25.611Z,0.72
2018-12-15T19:20:53.477Z,0.91
2018-12-15T19:23:21.621Z,0.67
2018-12-15T19:25:49.909Z,0.80
2018-12-15T19:28:17.830Z,0.71
2018-12-15T19:30:45.718Z,0.70
2018-12-15T19:33:13.904Z,0.76
2018-12-15T19:35:41.850Z,0.81
2018-12-15T19:38:09.716Z,0.83
2018-12-15T19:40:37.577Z,0.64
2018-12-15T19:43:05.693Z,0.71
2018-12-15T19:45:33.660Z,0.76
2018-12-15T19:48:01.938Z,0.87
2018-12-15T19:50:29.864Z,0.76
2018-12-15T19:52:57.858Z,0.69
2018-12-15T19:55:25.796Z,0.80
2018-12-15T19:57:53.661Z,0.98
2018-12-15T20:00:21.651Z,0.95
2018-12-15T20:02:49.718Z,0.99
2018-12-15T20:05:17.821Z,0.85
2018-12-15T20:07:45.750Z,0.81
2018-12-15T20:10:13.656Z,0.95
2018-12-15T20:12:41.481Z,0.74
2018-12-15T20:15:09.647Z,0.84
2018-12-15T20:17:37.769Z,0.89
2018-12-15T20:20:06.658Z,0.83
2018-12-15T20:22:34.680Z,0.78
2018-12-15T20:25:02.784Z,0.87
2018-12-15T20:27:30.873Z,0.81
2018-12-15T20:29:58.918Z,0.93
2018-12-15T20:32:27.132Z,0.53
2018-12-15T20:34:54.831Z,0.56
2018-12-15T20:37:22.953Z,0.56
2018-12-15T20:39:50.716Z,0.47
2018-12-15T20:42:18.616Z,0.55
2018-12-15T20:44:46.735Z,0.50
2018-12-15T20:47:15.002Z,0.51
2018-12-15T20:49:42.968Z,0.54
2018-12-15T20:52:10.831Z,0.48
2018-12-15T20:54:38.747Z,0.63
2018-12-15T20:57:08.042Z,0.66
2018-12-15T20:59:36.281Z,0.68
2018-12-15T21:02:04.151Z,0.85
2018-12-15T21:04:32.059Z,0.82
2018-12-15T21:07:00.175Z,0.70
2018-12-15T21:09:28.141Z,0.84
2018-12-15T21:11:56.156Z,0.59
2018-12-15T21:14:24.124Z,0.52
2018-12-15T21:16:52.094Z,0.62
2018-12-15T21:19:20.130Z,0.51
2018-12-15T21:21:49.584Z,0.53
2018-12-15T21:24:18.134Z,0.68
2018-12-15T21:26:47.042Z,0.54
2018-12-15T21:29:15.041Z,0.70
2018-12-15T21:31:42.957Z,0.69
2018-12-15T21:34:12.077Z,0.80
2018-12-15T21:36:40.044Z,0.73
2018-12-15T21:39:08.129Z,0.79
2018-12-15T21:41:36.194Z,0.62
2018-12-15T21:44:04.164Z,0.61
2018-12-15T21:46:32.100Z,0.55
2018-12-15T21:48:59.968Z,0.41
2018-12-15T21:51:28.164Z,0.43
2018-12-15T21:53:56.172Z,0.48
2018-12-15T21:56:24.091Z,0.39
2018-12-15T21:58:52.029Z,0.54
2018-12-15T22:01:19.896Z,0.55
2018-12-15T22:03:47.761Z,0.68
2018-12-15T22:06:15.756Z,0.63
2018-12-15T22:08:43.716Z,0.57
2018-12-15T22:11:11.760Z,0.44
2018-12-15T22:13:39.763Z,0.41
2018-12-15T22:16:07.838Z,0.34
2018-12-15T22:18:36.133Z,0.39
2018-12-15T22:21:04.200Z,0.51
2018-12-15T22:23:32.210Z,0.54
2018-12-15T22:26:00.103Z,0.39
2018-12-15T22:28:28.066Z,0.54
2018-12-15T22:30:55.932Z,0.55
2018-12-15T22:33:24.073Z,0.68
2018-12-15T22:35:51.915Z,0.55
2018-12-15T22:38:20.084Z,0.61
2018-12-15T22:40:47.870Z,0.64
2018-12-15T22:43:16.011Z,0.69
2018-12-15T22:45:44.175Z,0.53
2018-12-15T22:48:12.116Z,0.57
2018-12-15T22:50:40.143Z,0.77
2018-12-15T22:53:08.206Z,0.65
2018-12-15T22:55:36.238Z,0.57
2018-12-15T22:58:04.204Z,0.63
2018-12-15T23:00:34.644Z,0.46
2018-12-15T23:03:02.610Z,0.73
2018-12-15T23:05:30.575Z,0.65
2018-12-15T23:07:58.642Z,0.55
2018-12-15T23:10:26.510Z,0.48
2018-12-15T23:12:54.518Z,0.51
2018-12-15T23:15:22.587Z,0.67
2018-12-15T23:17:50.328Z,0.49
2018-12-15T23:20:18.194Z,0.43
2018-12-15T23:22:46.161Z,0.68
2018-12-15T23:25:14.258Z,0.51
2018-12-15T23:27:42.266Z,0.65
2018-12-15T23:30:10.400Z,0.55
2018-12-15T23:32:38.397Z,0.55
2018-12-15T23:35:06.542Z,0.60
2018-12-15T23:37:34.528Z,0.94
2018-12-15T23:40:02.469Z,0.62
2018-12-15T23:42:30.410Z,0.72
2018-12-15T23:44:58.400Z,0.63
2018-12-15T23:47:26.492Z,0.81
2018-12-15T23:49:54.531Z,0.83
2018-12-15T23:52:23.454Z,0.68
2018-12-15T23:54:51.863Z,0.61
2018-12-15T23:57:19.979Z,0.61
2018-12-15T23:59:47.919Z,0.45
